sensor_id;sensor_type;location;lat;lon;timestamp;temperature;humidity
52799;DHT22;38667;42.872;74.622;2023-07-16T00:01:19;24.50;40.20
52799;DHT22;38667;42.872;74.622;2023-07-16T00:03:46;24.50;40.00
52799;DHT22;38667;42.872;74.622;2023-07-16T00:06:12;24.60;40.00
52799;DHT22;38667;42.872;74.622;2023-07-16T00:08:38;24.70;40.30
52799;DHT22;38667;42.872;74.622;2023-07-16T00:11:06;24.60;41.00
52799;DHT22;38667;42.872;74.622;2023-07-16T00:13:32;24.50;42.70
52799;DHT22;38667;42.872;74.622;2023-07-16T00:15:59;24.20;42.50
52799;DHT22;38667;42.872;74.622;2023-07-16T00:18:25;24.20;42.00
52799;DHT22;38667;42.872;74.622;2023-07-16T00:20:51;24.20;42.60
52799;DHT22;38667;42.872;74.622;2023-07-16T00:23:18;24.30;42.60
52799;DHT22;38667;42.872;74.622;2023-07-16T00:25:44;24.40;42.70
52799;DHT22;38667;42.872;74.622;2023-07-16T00:28:12;24.10;43.90
52799;DHT22;38667;42.872;74.622;2023-07-16T00:30:39;23.90;44.10
52799;DHT22;38667;42.872;74.622;2023-07-16T00:33:05;23.60;44.40
52799;DHT22;38667;42.872;74.622;2023-07-16T00:35:31;23.60;44.70
52799;DHT22;38667;42.872;74.622;2023-07-16T00:37:57;23.80;44.30
52799;DHT22;38667;42.872;74.622;2023-07-16T00:40:24;23.90;45.20
52799;DHT22;38667;42.872;74.622;2023-07-16T00:42:50;23.80;44.50
52799;DHT22;38667;42.872;74.622;2023-07-16T00:45:18;23.60;44.90
52799;DHT22;38667;42.872;74.622;2023-07-16T00:47:44;23.40;45.80
52799;DHT22;38667;42.872;74.622;2023-07-16T00:50:11;23.30;46.20
52799;DHT22;38667;42.872;74.622;2023-07-16T00:52:38;23.30;47.00
52799;DHT22;38667;42.872;74.622;2023-07-16T00:55:07;23.60;46.40
52799;DHT22;38667;42.872;74.622;2023-07-16T00:57:34;23.70;46.20
52799;DHT22;38667;42.872;74.622;2023-07-16T01:00:00;23.60;48.10
52799;DHT22;38667;42.872;74.622;2023-07-16T01:02:28;23.40;47.40
52799;DHT22;38667;42.872;74.622;2023-07-16T01:04:54;23.30;48.10
52799;DHT22;38667;42.872;74.622;2023-07-16T01:07:24;23.40;46.70
52799;DHT22;38667;42.872;74.622;2023-07-16T01:09:53;23.60;46.10
52799;DHT22;38667;42.872;74.622;2023-07-16T01:12:21;23.80;45.40
52799;DHT22;38667;42.872;74.622;2023-07-16T01:14:48;23.90;46.40
52799;DHT22;38667;42.872;74.622;2023-07-16T01:17:15;23.70;47.30
52799;DHT22;38667;42.872;74.622;2023-07-16T01:19:44;23.60;46.80
52799;DHT22;38667;42.872;74.622;2023-07-16T01:22:34;23.40;49.70
52799;DHT22;38667;42.872;74.622;2023-07-16T01:25:20;23.60;47.30
52799;DHT22;38667;42.872;74.622;2023-07-16T01:28:26;23.90;47.30
52799;DHT22;38667;42.872;74.622;2023-07-16T01:30:56;24.00;46.70
52799;DHT22;38667;42.872;74.622;2023-07-16T01:33:25;24.00;44.90
52799;DHT22;38667;42.872;74.622;2023-07-16T01:35:52;24.00;45.10
52799;DHT22;38667;42.872;74.622;2023-07-16T01:38:18;24.00;45.70
52799;DHT22;38667;42.872;74.622;2023-07-16T01:40:45;24.20;45.40
52799;DHT22;38667;42.872;74.622;2023-07-16T01:43:11;24.40;44.80
52799;DHT22;38667;42.872;74.622;2023-07-16T01:45:37;24.60;44.30
52799;DHT22;38667;42.872;74.622;2023-07-16T01:48:13;24.60;45.20
52799;DHT22;38667;42.872;74.622;2023-07-16T01:50:40;24.40;46.00
52799;DHT22;38667;42.872;74.622;2023-07-16T01:53:06;24.40;48.50
52799;DHT22;38667;42.872;74.622;2023-07-16T01:55:33;24.40;46.20
52799;DHT22;38667;42.872;74.622;2023-07-16T01:57:59;24.60;46.00
52799;DHT22;38667;42.872;74.622;2023-07-16T02:00:25;24.80;45.30
52799;DHT22;38667;42.872;74.622;2023-07-16T02:02:51;24.90;45.90
52799;DHT22;38667;42.872;74.622;2023-07-16T02:05:19;24.80;45.80
52799;DHT22;38667;42.872;74.622;2023-07-16T02:07:46;24.70;47.90
52799;DHT22;38667;42.872;74.622;2023-07-16T02:10:12;24.60;47.80
52799;DHT22;38667;42.872;74.622;2023-07-16T02:12:38;24.70;46.40
52799;DHT22;38667;42.872;74.622;2023-07-16T02:15:06;25.00;45.40
52799;DHT22;38667;42.872;74.622;2023-07-16T02:17:32;25.20;44.80
52799;DHT22;38667;42.872;74.622;2023-07-16T02:19:58;25.20;45.70
52799;DHT22;38667;42.872;74.622;2023-07-16T02:22:26;25.10;47.10
52799;DHT22;38667;42.872;74.622;2023-07-16T02:24:53;25.00;45.70
52799;DHT22;38667;42.872;74.622;2023-07-16T02:27:19;25.00;44.30
52799;DHT22;38667;42.872;74.622;2023-07-16T02:29:45;25.30;43.80
52799;DHT22;38667;42.872;74.622;2023-07-16T02:32:11;25.40;42.70
52799;DHT22;38667;42.872;74.622;2023-07-16T02:34:38;25.50;42.90
52799;DHT22;38667;42.872;74.622;2023-07-16T02:37:04;25.40;43.70
52799;DHT22;38667;42.872;74.622;2023-07-16T02:39:32;25.40;44.40
52799;DHT22;38667;42.872;74.622;2023-07-16T02:41:58;25.30;43.50
52799;DHT22;38667;42.872;74.622;2023-07-16T02:44:25;25.40;41.50
52799;DHT22;38667;42.872;74.622;2023-07-16T02:46:51;25.60;41.10
52799;DHT22;38667;42.872;74.622;2023-07-16T02:49:18;25.80;40.50
52799;DHT22;38667;42.872;74.622;2023-07-16T02:51:44;25.70;41.90
52799;DHT22;38667;42.872;74.622;2023-07-16T02:54:10;25.60;42.60
52799;DHT22;38667;42.872;74.622;2023-07-16T02:56:38;25.50;42.40
52799;DHT22;38667;42.872;74.622;2023-07-16T02:59:04;25.60;42.70
52799;DHT22;38667;42.872;74.622;2023-07-16T03:01:31;25.80;42.10
52799;DHT22;38667;42.872;74.622;2023-07-16T03:03:57;25.90;41.70
52799;DHT22;38667;42.872;74.622;2023-07-16T03:06:23;26.00;41.10
52799;DHT22;38667;42.872;74.622;2023-07-16T03:08:50;25.90;40.10
52799;DHT22;38667;42.872;74.622;2023-07-16T03:11:16;25.90;41.20
52799;DHT22;38667;42.872;74.622;2023-07-16T03:13:44;25.90;41.70
52799;DHT22;38667;42.872;74.622;2023-07-16T03:16:10;26.00;42.50
52799;DHT22;38667;42.872;74.622;2023-07-16T03:18:36;26.30;39.70
52799;DHT22;38667;42.872;74.622;2023-07-16T03:21:03;26.60;39.80
52799;DHT22;38667;42.872;74.622;2023-07-16T03:23:29;26.60;40.20
52799;DHT22;38667;42.872;74.622;2023-07-16T03:25:55;26.50;40.00
52799;DHT22;38667;42.872;74.622;2023-07-16T03:28:22;26.40;40.20
52799;DHT22;38667;42.872;74.622;2023-07-16T03:30:50;26.40;39.00
52799;DHT22;38667;42.872;74.622;2023-07-16T03:33:17;26.70;39.20
52799;DHT22;38667;42.872;74.622;2023-07-16T03:35:43;26.90;39.80
52799;DHT22;38667;42.872;74.622;2023-07-16T03:38:10;27.10;40.10
52799;DHT22;38667;42.872;74.622;2023-07-16T03:40:36;27.00;40.10
52799;DHT22;38667;42.872;74.622;2023-07-16T03:43:02;26.90;39.20
52799;DHT22;38667;42.872;74.622;2023-07-16T03:45:28;26.90;37.70
52799;DHT22;38667;42.872;74.622;2023-07-16T03:47:56;27.10;37.80
52799;DHT22;38667;42.872;74.622;2023-07-16T03:50:23;27.20;38.20
52799;DHT22;38667;42.872;74.622;2023-07-16T03:52:49;27.40;37.90
52799;DHT22;38667;42.872;74.622;2023-07-16T03:55:16;27.40;37.60
52799;DHT22;38667;42.872;74.622;2023-07-16T03:57:42;27.30;37.60
52799;DHT22;38667;42.872;74.622;2023-07-16T04:00:09;27.20;38.20
52799;DHT22;38667;42.872;74.622;2023-07-16T04:02:36;27.20;38.20
52799;DHT22;38667;42.872;74.622;2023-07-16T04:05:05;27.50;37.30
52799;DHT22;38667;42.872;74.622;2023-07-16T04:07:32;27.60;36.80
52799;DHT22;38667;42.872;74.622;2023-07-16T04:09:58;27.70;36.90
52799;DHT22;38667;42.872;74.622;2023-07-16T04:12:24;27.60;37.60
52799;DHT22;38667;42.872;74.622;2023-07-16T04:14:55;27.60;36.30
52799;DHT22;38667;42.872;74.622;2023-07-16T04:17:22;27.60;36.10
52799;DHT22;38667;42.872;74.622;2023-07-16T04:19:49;27.70;35.50
52799;DHT22;38667;42.872;74.622;2023-07-16T04:22:17;27.90;35.50
52799;DHT22;38667;42.872;74.622;2023-07-16T04:24:43;27.90;35.50
52799;DHT22;38667;42.872;74.622;2023-07-16T04:27:09;27.90;35.20
52799;DHT22;38667;42.872;74.622;2023-07-16T04:29:36;27.90;35.70
52799;DHT22;38667;42.872;74.622;2023-07-16T04:32:02;27.90;36.00
52799;DHT22;38667;42.872;74.622;2023-07-16T04:34:29;28.10;35.90
52799;DHT22;38667;42.872;74.622;2023-07-16T04:36:55;28.30;35.70
52799;DHT22;38667;42.872;74.622;2023-07-16T04:39:23;28.40;36.30
52799;DHT22;38667;42.872;74.622;2023-07-16T04:41:49;28.30;35.70
52799;DHT22;38667;42.872;74.622;2023-07-16T04:44:15;28.30;35.60
52799;DHT22;38667;42.872;74.622;2023-07-16T04:46:42;28.20;36.00
52799;DHT22;38667;42.872;74.622;2023-07-16T04:49:08;28.30;35.20
52799;DHT22;38667;42.872;74.622;2023-07-16T04:51:34;28.40;35.40
52799;DHT22;38667;42.872;74.622;2023-07-16T04:54:01;28.50;36.20
52799;DHT22;38667;42.872;74.622;2023-07-16T04:56:29;28.50;35.80
52799;DHT22;38667;42.872;74.622;2023-07-16T04:58:55;28.50;34.10
52799;DHT22;38667;42.872;74.622;2023-07-16T05:01:21;28.40;34.10
52799;DHT22;38667;42.872;74.622;2023-07-16T05:03:47;28.50;35.10
52799;DHT22;38667;42.872;74.622;2023-07-16T05:06:14;28.60;33.40
52799;DHT22;38667;42.872;74.622;2023-07-16T05:08:40;28.80;34.10
52799;DHT22;38667;42.872;74.622;2023-07-16T05:11:07;28.80;34.10
52799;DHT22;38667;42.872;74.622;2023-07-16T05:13:35;28.80;33.60
52799;DHT22;38667;42.872;74.622;2023-07-16T05:16:01;28.80;34.50
52799;DHT22;38667;42.872;74.622;2023-07-16T05:18:28;28.80;34.50
52799;DHT22;38667;42.872;74.622;2023-07-16T05:20:54;29.00;34.90
52799;DHT22;38667;42.872;74.622;2023-07-16T05:23:20;29.30;35.90
52799;DHT22;38667;42.872;74.622;2023-07-16T05:25:47;29.40;33.90
52799;DHT22;38667;42.872;74.622;2023-07-16T05:28:13;29.20;34.10
52799;DHT22;38667;42.872;74.622;2023-07-16T05:30:41;29.10;35.00
52799;DHT22;38667;42.872;74.622;2023-07-16T05:33:08;29.00;34.70
52799;DHT22;38667;42.872;74.622;2023-07-16T05:35:35;29.00;34.40
52799;DHT22;38667;42.872;74.622;2023-07-16T05:38:01;29.00;36.00
52799;DHT22;38667;42.872;74.622;2023-07-16T05:40:27;28.90;34.70
52799;DHT22;38667;42.872;74.622;2023-07-16T05:42:54;28.80;35.10
52799;DHT22;38667;42.872;74.622;2023-07-16T05:45:20;28.70;35.40
52799;DHT22;38667;42.872;74.622;2023-07-16T05:47:49;28.80;33.90
52799;DHT22;38667;42.872;74.622;2023-07-16T05:50:15;29.20;34.10
52799;DHT22;38667;42.872;74.622;2023-07-16T05:52:41;29.70;33.60
52799;DHT22;38667;42.872;74.622;2023-07-16T05:55:08;29.90;33.10
52799;DHT22;38667;42.872;74.622;2023-07-16T05:57:34;29.70;34.20
52799;DHT22;38667;42.872;74.622;2023-07-16T06:00:01;29.80;33.70
52799;DHT22;38667;42.872;74.622;2023-07-16T06:02:27;30.10;33.20
52799;DHT22;38667;42.872;74.622;2023-07-16T06:04:55;30.50;32.10
52799;DHT22;38667;42.872;74.622;2023-07-16T06:07:21;30.90;32.50
52799;DHT22;38667;42.872;74.622;2023-07-16T06:09:48;31.20;32.70
52799;DHT22;38667;42.872;74.622;2023-07-16T06:12:14;31.10;31.70
52799;DHT22;38667;42.872;74.622;2023-07-16T06:14:40;31.10;32.30
52799;DHT22;38667;42.872;74.622;2023-07-16T06:17:07;31.10;32.30
52799;DHT22;38667;42.872;74.622;2023-07-16T06:19:33;31.10;31.80
52799;DHT22;38667;42.872;74.622;2023-07-16T06:22:01;31.10;31.20
52799;DHT22;38667;42.872;74.622;2023-07-16T06:24:27;31.00;30.50
52799;DHT22;38667;42.872;74.622;2023-07-16T06:26:53;30.90;30.70
52799;DHT22;38667;42.872;74.622;2023-07-16T06:29:20;30.70;30.50
52799;DHT22;38667;42.872;74.622;2023-07-16T06:31:54;30.70;31.00
52799;DHT22;38667;42.872;74.622;2023-07-16T06:34:21;30.90;31.10
52799;DHT22;38667;42.872;74.622;2023-07-16T06:36:47;31.10;31.70
52799;DHT22;38667;42.872;74.622;2023-07-16T06:39:15;31.30;30.00
52799;DHT22;38667;42.872;74.622;2023-07-16T06:41:41;31.00;30.50
52799;DHT22;38667;42.872;74.622;2023-07-16T06:44:08;30.80;29.80
52799;DHT22;38667;42.872;74.622;2023-07-16T06:46:34;30.70;30.10
52799;DHT22;38667;42.872;74.622;2023-07-16T06:49:01;30.60;30.40
52799;DHT22;38667;42.872;74.622;2023-07-16T06:51:27;30.70;31.00
52799;DHT22;38667;42.872;74.622;2023-07-16T06:53:53;31.00;31.00
52799;DHT22;38667;42.872;74.622;2023-07-16T06:56:21;31.00;31.30
52799;DHT22;38667;42.872;74.622;2023-07-16T06:58:47;30.90;32.00
52799;DHT22;38667;42.872;74.622;2023-07-16T07:01:14;30.30;33.40
52799;DHT22;38667;42.872;74.622;2023-07-16T07:03:40;29.90;33.00
52799;DHT22;38667;42.872;74.622;2023-07-16T07:06:06;29.70;32.60
52799;DHT22;38667;42.872;74.622;2023-07-16T07:08:32;29.30;33.10
52799;DHT22;38667;42.872;74.622;2023-07-16T07:10:59;29.30;33.10
52799;DHT22;38667;42.872;74.622;2023-07-16T07:13:27;29.20;33.00
52799;DHT22;38667;42.872;74.622;2023-07-16T07:15:53;29.10;34.00
52799;DHT22;38667;42.872;74.622;2023-07-16T07:18:19;29.10;32.70
52799;DHT22;38667;42.872;74.622;2023-07-16T07:20:46;29.30;32.50
52799;DHT22;38667;42.872;74.622;2023-07-16T07:23:12;29.90;31.40
52799;DHT22;38667;42.872;74.622;2023-07-16T07:25:39;29.80;32.60
52799;DHT22;38667;42.872;74.622;2023-07-16T07:28:05;29.50;33.40
52799;DHT22;38667;42.872;74.622;2023-07-16T07:30:33;29.50;32.70
52799;DHT22;38667;42.872;74.622;2023-07-16T07:32:59;29.70;31.90
52799;DHT22;38667;42.872;74.622;2023-07-16T07:35:26;29.50;32.10
52799;DHT22;38667;42.872;74.622;2023-07-16T07:37:52;29.50;32.50
52799;DHT22;38667;42.872;74.622;2023-07-16T07:40:19;29.50;32.70
52799;DHT22;38667;42.872;74.622;2023-07-16T07:42:45;29.50;32.60
52799;DHT22;38667;42.872;74.622;2023-07-16T07:45:11;29.70;31.40
52799;DHT22;38667;42.872;74.622;2023-07-16T07:47:39;29.70;32.00
52799;DHT22;38667;42.872;74.622;2023-07-16T07:50:06;30.40;31.80
52799;DHT22;38667;42.872;74.622;2023-07-16T07:52:33;30.60;31.30
52799;DHT22;38667;42.872;74.622;2023-07-16T07:54:59;30.40;31.10
52799;DHT22;38667;42.872;74.622;2023-07-16T07:57:25;30.20;32.70
52799;DHT22;38667;42.872;74.622;2023-07-16T07:59:52;30.30;31.20
52799;DHT22;38667;42.872;74.622;2023-07-16T08:02:19;30.50;30.80
52799;DHT22;38667;42.872;74.622;2023-07-16T08:04:47;30.30;31.30
52799;DHT22;38667;42.872;74.622;2023-07-16T08:07:13;30.40;30.90
52799;DHT22;38667;42.872;74.622;2023-07-16T08:09:39;30.10;31.90
52799;DHT22;38667;42.872;74.622;2023-07-16T08:12:06;30.00;31.00
52799;DHT22;38667;42.872;74.622;2023-07-16T08:14:32;30.30;30.30
52799;DHT22;38667;42.872;74.622;2023-07-16T08:16:59;31.10;30.20
52799;DHT22;38667;42.872;74.622;2023-07-16T08:19:26;31.40;29.90
52799;DHT22;38667;42.872;74.622;2023-07-16T08:21:53;31.30;30.90
52799;DHT22;38667;42.872;74.622;2023-07-16T08:24:20;31.10;30.30
52799;DHT22;38667;42.872;74.622;2023-07-16T08:26:46;31.00;30.60
52799;DHT22;38667;42.872;74.622;2023-07-16T08:29:12;31.00;31.50
52799;DHT22;38667;42.872;74.622;2023-07-16T08:31:39;31.10;30.30
52799;DHT22;38667;42.872;74.622;2023-07-16T08:34:05;30.90;30.50
52799;DHT22;38667;42.872;74.622;2023-07-16T08:36:33;31.40;30.30
52799;DHT22;38667;42.872;74.622;2023-07-16T08:39:01;31.50;29.40
52799;DHT22;38667;42.872;74.622;2023-07-16T08:41:28;31.20;30.30
52799;DHT22;38667;42.872;74.622;2023-07-16T08:43:54;31.00;31.50
52799;DHT22;38667;42.872;74.622;2023-07-16T08:46:21;30.90;32.10
52799;DHT22;38667;42.872;74.622;2023-07-16T08:48:48;30.90;30.50
52799;DHT22;38667;42.872;74.622;2023-07-16T08:51:15;30.90;30.50
52799;DHT22;38667;42.872;74.622;2023-07-16T08:53:41;31.10;31.20
52799;DHT22;38667;42.872;74.622;2023-07-16T08:56:09;31.00;30.50
52799;DHT22;38667;42.872;74.622;2023-07-16T08:58:37;31.10;30.30
52799;DHT22;38667;42.872;74.622;2023-07-16T09:01:03;31.50;31.00
52799;DHT22;38667;42.872;74.622;2023-07-16T09:03:31;31.90;30.10
52799;DHT22;38667;42.872;74.622;2023-07-16T09:05:57;31.30;30.60
52799;DHT22;38667;42.872;74.622;2023-07-16T09:08:23;31.20;30.50
52799;DHT22;38667;42.872;74.622;2023-07-16T09:10:54;31.10;31.50
52799;DHT22;38667;42.872;74.622;2023-07-16T09:13:22;30.90;30.90
52799;DHT22;38667;42.872;74.622;2023-07-16T09:15:51;30.50;31.30
52799;DHT22;38667;42.872;74.622;2023-07-16T09:18:20;30.30;32.00
52799;DHT22;38667;42.872;74.622;2023-07-16T09:20:47;30.00;32.80
52799;DHT22;38667;42.872;74.622;2023-07-16T09:23:14;29.80;32.20
52799;DHT22;38667;42.872;74.622;2023-07-16T09:25:43;29.70;32.80
52799;DHT22;38667;42.872;74.622;2023-07-16T09:28:09;29.60;32.60
52799;DHT22;38667;42.872;74.622;2023-07-16T09:30:37;29.70;33.50
52799;DHT22;38667;42.872;74.622;2023-07-16T09:33:14;30.00;32.80
52799;DHT22;38667;42.872;74.622;2023-07-16T09:35:41;30.10;32.50
52799;DHT22;38667;42.872;74.622;2023-07-16T09:38:08;30.10;32.60
52799;DHT22;38667;42.872;74.622;2023-07-16T09:40:35;30.30;32.30
52799;DHT22;38667;42.872;74.622;2023-07-16T09:43:01;30.10;32.40
52799;DHT22;38667;42.872;74.622;2023-07-16T09:45:28;29.90;33.00
52799;DHT22;38667;42.872;74.622;2023-07-16T09:47:56;29.70;33.40
52799;DHT22;38667;42.872;74.622;2023-07-16T09:50:23;29.70;32.70
52799;DHT22;38667;42.872;74.622;2023-07-16T09:52:51;29.70;33.20
52799;DHT22;38667;42.872;74.622;2023-07-16T09:55:18;29.50;33.00
52799;DHT22;38667;42.872;74.622;2023-07-16T09:57:48;29.50;34.10
52799;DHT22;38667;42.872;74.622;2023-07-16T10:00:16;29.60;33.20
52799;DHT22;38667;42.872;74.622;2023-07-16T10:02:43;29.60;33.20
52799;DHT22;38667;42.872;74.622;2023-07-16T10:05:15;29.50;33.60
52799;DHT22;38667;42.872;74.622;2023-07-16T10:07:42;29.50;33.40
52799;DHT22;38667;42.872;74.622;2023-07-16T10:10:10;29.40;33.20
52799;DHT22;38667;42.872;74.622;2023-07-16T10:12:37;29.40;36.90
52799;DHT22;38667;42.872;74.622;2023-07-16T10:15:05;29.50;33.30
52799;DHT22;38667;42.872;74.622;2023-07-16T10:17:32;29.70;34.00
52799;DHT22;38667;42.872;74.622;2023-07-16T10:19:59;29.70;33.60
52799;DHT22;38667;42.872;74.622;2023-07-16T10:22:34;30.10;32.30
52799;DHT22;38667;42.872;74.622;2023-07-16T10:25:01;30.50;32.10
52799;DHT22;38667;42.872;74.622;2023-07-16T10:27:28;30.80;32.60
52799;DHT22;38667;42.872;74.622;2023-07-16T10:29:55;30.70;32.90
52799;DHT22;38667;42.872;74.622;2023-07-16T10:32:21;30.60;32.00
52799;DHT22;38667;42.872;74.622;2023-07-16T10:34:47;30.60;31.90
52799;DHT22;38667;42.872;74.622;2023-07-16T10:37:14;30.90;31.00
52799;DHT22;38667;42.872;74.622;2023-07-16T10:39:47;31.10;30.50
52799;DHT22;38667;42.872;74.622;2023-07-16T10:42:13;31.40;29.80
52799;DHT22;38667;42.872;74.622;2023-07-16T10:44:40;31.30;30.70
52799;DHT22;38667;42.872;74.622;2023-07-16T10:47:06;31.30;30.70
52799;DHT22;38667;42.872;74.622;2023-07-16T10:49:33;31.20;30.30
52799;DHT22;38667;42.872;74.622;2023-07-16T10:52:01;31.20;30.10
52799;DHT22;38667;42.872;74.622;2023-07-16T10:54:27;31.40;30.30
52799;DHT22;38667;42.872;74.622;2023-07-16T10:56:56;31.40;29.10
52799;DHT22;38667;42.872;74.622;2023-07-16T10:59:22;31.30;29.80
52799;DHT22;38667;42.872;74.622;2023-07-16T11:01:48;31.20;30.10
52799;DHT22;38667;42.872;74.622;2023-07-16T11:04:16;31.20;30.30
52799;DHT22;38667;42.872;74.622;2023-07-16T11:06:42;31.40;28.90
52799;DHT22;38667;42.872;74.622;2023-07-16T11:09:09;31.50;29.30
52799;DHT22;38667;42.872;74.622;2023-07-16T11:11:35;31.60;28.90
52799;DHT22;38667;42.872;74.622;2023-07-16T11:14:05;31.50;29.20
52799;DHT22;38667;42.872;74.622;2023-07-16T11:16:34;31.40;29.40
52799;DHT22;38667;42.872;74.622;2023-07-16T11:19:03;31.40;30.00
52799;DHT22;38667;42.872;74.622;2023-07-16T11:21:29;31.40;29.70
52799;DHT22;38667;42.872;74.622;2023-07-16T11:23:56;31.40;29.00
52799;DHT22;38667;42.872;74.622;2023-07-16T11:26:22;31.30;29.70
52799;DHT22;38667;42.872;74.622;2023-07-16T11:28:50;31.20;29.80
52799;DHT22;38667;42.872;74.622;2023-07-16T11:31:18;31.20;29.50
52799;DHT22;38667;42.872;74.622;2023-07-16T11:33:45;31.20;29.80
52799;DHT22;38667;42.872;74.622;2023-07-16T11:36:11;31.00;30.90
52799;DHT22;38667;42.872;74.622;2023-07-16T11:38:37;30.80;30.20
52799;DHT22;38667;42.872;74.622;2023-07-16T11:41:04;30.60;31.10
52799;DHT22;38667;42.872;74.622;2023-07-16T11:43:34;30.40;31.70
52799;DHT22;38667;42.872;74.622;2023-07-16T11:46:01;30.30;32.70
52799;DHT22;38667;42.872;74.622;2023-07-16T11:48:29;30.30;32.30
52799;DHT22;38667;42.872;74.622;2023-07-16T11:50:55;30.40;32.50
52799;DHT22;38667;42.872;74.622;2023-07-16T11:53:21;30.30;33.30
52799;DHT22;38667;42.872;74.622;2023-07-16T11:55:47;30.20;32.60
52799;DHT22;38667;42.872;74.622;2023-07-16T11:58:14;30.10;32.90
52799;DHT22;38667;42.872;74.622;2023-07-16T12:00:40;30.00;33.60
52799;DHT22;38667;42.872;74.622;2023-07-16T12:03:06;29.80;33.80
52799;DHT22;38667;42.872;74.622;2023-07-16T12:05:34;29.90;32.30
52799;DHT22;38667;42.872;74.622;2023-07-16T12:08:01;30.30;32.20
52799;DHT22;38667;42.872;74.622;2023-07-16T12:10:27;30.50;31.50
52799;DHT22;38667;42.872;74.622;2023-07-16T12:12:53;30.50;32.00
52799;DHT22;38667;42.872;74.622;2023-07-16T12:15:19;30.60;31.30
52799;DHT22;38667;42.872;74.622;2023-07-16T12:17:46;30.90;29.70
52799;DHT22;38667;42.872;74.622;2023-07-16T12:20:12;30.80;31.20
52799;DHT22;38667;42.872;74.622;2023-07-16T12:22:40;30.50;30.80
52799;DHT22;38667;42.872;74.622;2023-07-16T12:25:07;30.20;32.20
52799;DHT22;38667;42.872;74.622;2023-07-16T12:27:33;30.10;31.80
52799;DHT22;38667;42.872;74.622;2023-07-16T12:29:59;30.00;32.60
52799;DHT22;38667;42.872;74.622;2023-07-16T12:32:26;30.10;31.60
52799;DHT22;38667;42.872;74.622;2023-07-16T12:34:52;30.60;30.30
52799;DHT22;38667;42.872;74.622;2023-07-16T12:37:18;30.90;29.30
52799;DHT22;38667;42.872;74.622;2023-07-16T12:39:46;31.00;30.00
52799;DHT22;38667;42.872;74.622;2023-07-16T12:42:13;31.00;30.20
52799;DHT22;38667;42.872;74.622;2023-07-16T12:44:39;31.20;30.00
52799;DHT22;38667;42.872;74.622;2023-07-16T12:47:05;31.30;30.20
52799;DHT22;38667;42.872;74.622;2023-07-16T12:49:32;30.90;30.50
52799;DHT22;38667;42.872;74.622;2023-07-16T12:51:58;30.90;30.00
52799;DHT22;38667;42.872;74.622;2023-07-16T12:54:24;31.10;30.00
52799;DHT22;38667;42.872;74.622;2023-07-16T12:56:52;31.10;30.30
52799;DHT22;38667;42.872;74.622;2023-07-16T12:59:18;31.20;30.40
52799;DHT22;38667;42.872;74.622;2023-07-16T13:01:45;31.40;29.90
52799;DHT22;38667;42.872;74.622;2023-07-16T13:04:11;31.50;30.30
52799;DHT22;38667;42.872;74.622;2023-07-16T13:06:37;31.40;29.90
52799;DHT22;38667;42.872;74.622;2023-07-16T13:09:04;31.30;30.20
52799;DHT22;38667;42.872;74.622;2023-07-16T13:11:31;31.30;29.90
52799;DHT22;38667;42.872;74.622;2023-07-16T13:13:58;31.40;30.20
52799;DHT22;38667;42.872;74.622;2023-07-16T13:16:25;31.50;30.60
52799;DHT22;38667;42.872;74.622;2023-07-16T13:18:51;31.40;30.90
52799;DHT22;38667;42.872;74.622;2023-07-16T13:21:17;31.30;30.30
52799;DHT22;38667;42.872;74.622;2023-07-16T13:23:44;31.10;30.30
52799;DHT22;38667;42.872;74.622;2023-07-16T13:26:10;31.10;30.30
52799;DHT22;38667;42.872;74.622;2023-07-16T13:28:36;31.20;30.50
52799;DHT22;38667;42.872;74.622;2023-07-16T13:31:04;31.30;31.20
52799;DHT22;38667;42.872;74.622;2023-07-16T13:33:31;31.20;31.20
52799;DHT22;38667;42.872;74.622;2023-07-16T13:35:58;30.90;31.00
52799;DHT22;38667;42.872;74.622;2023-07-16T13:38:24;30.80;31.40
52799;DHT22;38667;42.872;74.622;2023-07-16T13:40:50;30.80;33.00
52799;DHT22;38667;42.872;74.622;2023-07-16T13:43:17;30.80;33.70
52799;DHT22;38667;42.872;74.622;2023-07-16T13:45:43;31.00;32.20
52799;DHT22;38667;42.872;74.622;2023-07-16T13:48:11;31.00;31.50
52799;DHT22;38667;42.872;74.622;2023-07-16T13:50:37;30.90;31.30
52799;DHT22;38667;42.872;74.622;2023-07-16T13:53:03;30.80;31.70
52799;DHT22;38667;42.872;74.622;2023-07-16T13:55:30;31.00;31.20
52799;DHT22;38667;42.872;74.622;2023-07-16T13:57:56;31.20;31.00
52799;DHT22;38667;42.872;74.622;2023-07-16T14:00:23;31.40;30.70
52799;DHT22;38667;42.872;74.622;2023-07-16T14:02:49;31.20;30.80
52799;DHT22;38667;42.872;74.622;2023-07-16T14:05:17;31.10;31.10
52799;DHT22;38667;42.872;74.622;2023-07-16T14:07:43;31.00;31.80
52799;DHT22;38667;42.872;74.622;2023-07-16T14:10:10;31.10;31.60
52799;DHT22;38667;42.872;74.622;2023-07-16T14:12:36;31.10;32.10
52799;DHT22;38667;42.872;74.622;2023-07-16T14:15:03;31.10;32.30
52799;DHT22;38667;42.872;74.622;2023-07-16T14:17:29;30.80;32.10
52799;DHT22;38667;42.872;74.622;2023-07-16T14:19:56;30.60;32.40
52799;DHT22;38667;42.872;74.622;2023-07-16T14:22:24;30.50;33.40
52799;DHT22;38667;42.872;74.622;2023-07-16T14:24:50;30.60;33.50
52799;DHT22;38667;42.872;74.622;2023-07-16T14:27:17;30.60;33.30
52799;DHT22;38667;42.872;74.622;2023-07-16T14:29:44;30.50;33.40
52799;DHT22;38667;42.872;74.622;2023-07-16T14:32:10;30.30;33.90
52799;DHT22;38667;42.872;74.622;2023-07-16T14:34:36;30.10;34.70
52799;DHT22;38667;42.872;74.622;2023-07-16T14:37:03;29.70;34.90
52799;DHT22;38667;42.872;74.622;2023-07-16T14:39:31;29.60;35.90
52799;DHT22;38667;42.872;74.622;2023-07-16T14:41:57;29.70;35.40
52799;DHT22;38667;42.872;74.622;2023-07-16T14:44:23;29.70;35.00
52799;DHT22;38667;42.872;74.622;2023-07-16T14:46:50;29.60;35.00
52799;DHT22;38667;42.872;74.622;2023-07-16T14:49:16;29.50;35.20
52799;DHT22;38667;42.872;74.622;2023-07-16T14:51:42;29.50;35.30
52799;DHT22;38667;42.872;74.622;2023-07-16T14:54:10;29.60;35.40
52799;DHT22;38667;42.872;74.622;2023-07-16T14:56:38;29.60;35.40
52799;DHT22;38667;42.872;74.622;2023-07-16T14:59:04;29.50;35.80
52799;DHT22;38667;42.872;74.622;2023-07-16T15:01:31;29.40;38.00
52799;DHT22;38667;42.872;74.622;2023-07-16T15:03:57;29.20;37.70
52799;DHT22;38667;42.872;74.622;2023-07-16T15:06:23;29.20;38.30
52799;DHT22;38667;42.872;74.622;2023-07-16T15:08:50;29.30;38.30
52799;DHT22;38667;42.872;74.622;2023-07-16T15:11:16;29.50;37.70
52799;DHT22;38667;42.872;74.622;2023-07-16T15:13:44;29.40;37.60